createdAt,value
2023-11-06T00:39:54.780Z,84.10
2023-11-06T00:52:58.463Z,84.17
2023-11-06T00:58:03.431Z,84.16
2023-11-06T01:03:07.385Z,84.17
2023-11-06T01:08:49.256Z,84.27
2023-11-06T01:14:43.875Z,84.21
2023-11-06T01:20:20.632Z,84.12
2023-11-06T01:25:25.027Z,84.07
2023-11-06T01:30:35.530Z,84.03
2023-11-06T01:36:29.894Z,84.09
2023-11-06T01:41:55.444Z,84.29
2023-11-06T01:47:00.007Z,84.18
2023-11-06T02:06:21.783Z,84.09
2023-11-06T02:11:51.806Z,84.05
2023-11-06T02:17:11.141Z,84.00
2023-11-06T02:30:03.614Z,83.86
2023-11-06T02:42:56.810Z,83.83
2023-11-06T02:57:10.231Z,84.10
2023-11-06T03:11:25.198Z,84.41
2023-11-06T03:34:34.827Z,84.61
2023-11-06T03:47:40.428Z,84.66
2023-11-06T04:07:12.181Z,86.26
2023-11-06T04:12:16.032Z,86.46
2023-11-06T04:25:41.403Z,86.83
2023-11-06T04:37:51.610Z,86.86
2023-11-06T04:47:59.410Z,86.79
2023-11-06T05:01:45.514Z,86.74
2023-11-06T05:06:49.446Z,86.78
2023-11-06T05:11:55.587Z,86.82
2023-11-06T05:17:25.034Z,86.81
2023-11-06T05:23:06.546Z,86.80
2023-11-06T05:29:02.118Z,86.78
2023-11-06T05:34:06.254Z,86.80
2023-11-06T06:09:34.772Z,86.28
2023-11-06T06:14:39.395Z,86.21
2023-11-06T06:19:43.313Z,86.29
2023-11-06T06:32:16.309Z,86.21
2023-11-06T06:53:52.722Z,86.10
2023-11-06T07:07:30.642Z,86.47
2023-11-06T07:12:34.388Z,86.68
2023-11-06T07:32:07.101Z,87.14
2023-11-06T07:37:36.831Z,87.15
2023-11-06T07:42:41.181Z,86.99
2023-11-06T07:47:45.172Z,86.90
2023-11-06T07:52:48.939Z,86.64
2023-11-06T07:57:53.377Z,86.28
2023-11-06T08:03:23.353Z,85.96
2023-11-06T08:16:29.462Z,85.96
2023-11-06T08:21:36.856Z,86.01
2023-11-06T08:27:16.893Z,86.06
2023-11-06T08:33:36.954Z,86.15
2023-11-06T08:46:35.853Z,86.35
2023-11-06T08:52:16.628Z,86.46
2023-11-06T08:58:17.604Z,86.31
2023-11-06T09:03:49.766Z,85.82
2023-11-06T09:23:29.534Z,85.01
2023-11-06T09:35:59.073Z,84.92
2023-11-06T09:42:23.444Z,85.36
2023-11-06T09:47:28.951Z,85.57
2023-11-06T09:53:30.945Z,85.63
2023-11-06T10:00:06.503Z,85.57
2023-11-06T10:05:22.275Z,85.63
2023-11-06T10:10:30.963Z,85.65
2023-11-06T10:15:38.700Z,85.56
2023-11-06T10:20:52.613Z,85.46
2023-11-06T10:26:23.858Z,85.18
2023-11-06T10:31:45.939Z,84.86
2023-11-06T10:37:43.773Z,84.66
2023-11-06T10:44:10.039Z,84.50
2023-11-06T10:49:55.793Z,84.21
2023-11-06T10:55:06.458Z,83.89
2023-11-06T11:01:55.987Z,83.80
2023-11-06T11:07:01.822Z,83.50
2023-11-06T11:20:06.312Z,83.13
2023-11-06T11:25:11.019Z,82.74
2023-11-06T11:30:15.116Z,82.50
2023-11-06T11:42:27.365Z,81.93
2023-11-06T11:47:57.280Z,81.57
2023-11-06T11:53:01.433Z,81.24
2023-11-06T11:59:37.533Z,81.08
2023-11-06T12:04:41.582Z,80.58
2023-11-06T12:11:02.287Z,80.50
2023-11-06T12:16:09.719Z,80.56
2023-11-06T12:22:35.214Z,80.52
2023-11-06T12:37:02.370Z,79.97
2023-11-06T12:43:34.651Z,79.78
2023-11-06T12:56:09.453Z,79.32
2023-11-06T13:09:15.655Z,79.50
2023-11-06T13:15:11.974Z,79.36
2023-11-06T13:20:34.427Z,79.28
2023-11-06T14:03:49.680Z,76.99
2023-11-06T14:08:57.759Z,76.83
2023-11-06T14:14:05.901Z,76.75
2023-11-06T14:19:09.689Z,76.63
2023-11-06T14:24:16.353Z,76.43
2023-11-06T14:29:22.657Z,76.05
2023-11-06T14:34:27.165Z,76.16
2023-11-06T14:39:31.458Z,76.07
2023-11-06T14:44:35.433Z,75.78
2023-11-06T14:58:17.661Z,75.03
2023-11-06T15:10:37.309Z,75.39
2023-11-06T15:15:43.982Z,75.46
2023-11-06T15:35:17.664Z,75.22
2023-11-06T15:40:47.727Z,75.23
2023-11-06T15:45:51.852Z,74.96
2023-11-06T15:50:55.908Z,74.92
2023-11-06T15:56:00.051Z,74.92
2023-11-06T16:01:31.973Z,74.96
2023-11-06T16:07:02.617Z,75.03
2023-11-06T16:12:07.265Z,75.21
2023-11-06T16:17:12.758Z,75.04
2023-11-06T16:28:07.383Z,75.13
2023-11-06T16:33:11.860Z,75.21
2023-11-06T16:38:16.574Z,75.42
2023-11-06T16:43:20.411Z,75.67
2023-11-06T16:48:32.103Z,75.92
2023-11-06T16:53:37.590Z,76.22
2023-11-06T17:05:53.469Z,76.66
2023-11-06T17:11:24.859Z,76.96
2023-11-06T17:16:28.905Z,77.29
2023-11-06T17:21:33.092Z,77.57
2023-11-06T17:35:14.671Z,78.12
2023-11-06T17:40:18.486Z,78.33
2023-11-06T17:45:22.623Z,78.40
2023-11-06T17:57:20.581Z,78.49
2023-11-06T18:03:11.731Z,78.57
2023-11-06T18:08:34.897Z,78.75
2023-11-06T18:13:45.452Z,78.93
2023-11-06T18:18:50.870Z,78.99
2023-11-06T18:23:55.879Z,78.88
2023-11-06T18:28:59.707Z,78.82
2023-11-06T18:34:03.363Z,78.85
2023-11-06T18:39:08.148Z,78.90
2023-11-06T18:44:13.615Z,78.92
2023-11-06T18:49:18.135Z,78.93
2023-11-06T18:54:23.039Z,78.99
2023-11-06T18:59:27.180Z,79.09
2023-11-06T19:04:32.599Z,79.11
2023-11-06T19:09:39.948Z,79.14
2023-11-06T19:14:43.979Z,79.16
2023-11-06T19:19:49.965Z,79.13
2023-11-06T19:24:57.200Z,79.15
2023-11-06T19:30:02.217Z,79.20
2023-11-06T19:35:10.384Z,79.25
2023-11-06T19:40:15.212Z,79.29
2023-11-06T19:45:19.222Z,79.30
2023-11-06T19:50:24.105Z,79.33
2023-11-06T19:55:30.606Z,79.31
2023-11-06T20:01:56.843Z,79.32
2023-11-06T20:21:51.074Z,79.59
2023-11-06T20:27:21.060Z,79.49
2023-11-06T20:32:25.913Z,79.46
2023-11-06T20:37:29.720Z,79.42
2023-11-06T20:42:35.943Z,79.50
2023-11-06T20:47:42.377Z,79.50
2023-11-06T20:52:47.418Z,79.57
2023-11-06T21:05:10.066Z,79.71
2023-11-06T21:10:39.371Z,79.79
2023-11-06T21:15:44.604Z,79.93
2023-11-06T21:20:48.677Z,80.07
2023-11-06T21:25:52.659Z,80.15
2023-11-06T21:30:59.173Z,80.21
2023-11-06T21:36:03.334Z,80.35
2023-11-06T21:41:07.231Z,80.46
2023-11-06T21:46:12.022Z,80.54
2023-11-06T21:51:16.305Z,80.47
2023-11-06T21:56:20.234Z,80.43
2023-11-06T22:01:24.265Z,80.47
2023-11-06T22:06:29.505Z,80.45
2023-11-06T22:26:17.902Z,80.41
2023-11-06T22:31:50.399Z,80.39
2023-11-06T22:36:54.207Z,80.28
2023-11-06T22:42:04.902Z,80.22
2023-11-06T22:47:09.095Z,80.01
2023-11-06T22:52:12.990Z,79.90
2023-11-06T22:57:17.565Z,79.90
2023-11-06T23:02:24.560Z,79.81
2023-11-06T23:07:28.508Z,79.74
2023-11-06T23:12:44.577Z,79.76
2023-11-06T23:17:48.786Z,79.83
2023-11-06T23:22:52.629Z,79.92
2023-11-06T23:27:57.372Z,80.00
2023-11-06T23:33:01.911Z,80.04
2023-11-06T23:38:05.972Z,80.16
2023-11-06T23:43:22.920Z,80.29
2023-11-06T23:48:27.220Z,80.38
2023-11-06T23:53:31.299Z,80.51
